Time;durP1;ratioP1;P1;durP2;ratioP2;P2;SDS_P1;SDS_P2;PMS_P1;PMS_P2;Temp;Humidity;BMP_temperature;BMP_pressure;BME280_temperature;BME280_humidity;BME280_pressure;Samples;Min_cycle;Max_cycle;Signal;HPM_P1;HPM_P2
2022/02/01 00:01:44;;;;;;;9.80;2.67;;;4.50;99.90;;;;;;5082664;28;20783;-41
2022/02/01 00:04:19;;;;;;;15.43;3.70;;;4.70;99.90;;;;;;5085644;28;20451;-40
2022/02/01 00:14:37;;;;;;;16.80;2.90;;;4.50;99.90;;;;;;5084483;28;20180;-41
2022/02/01 00:17:22;;;;;;;10.50;3.40;;;4.70;99.90;;;;;;5080854;28;20438;-44
2022/02/01 00:36:28;;;;;;;12.70;2.80;;;4.60;99.90;;;;;;5090612;28;20418;-40
2022/02/01 00:38:59;;;;;;;18.60;3.33;;;4.50;99.90;;;;;;5089496;28;20928;-41
2022/02/01 00:41:30;;;;;;;10.47;3.20;;;4.70;99.90;;;;;;5084760;28;20466;-41
2022/02/01 00:43:56;;;;;;;9.87;3.00;;;4.50;99.90;;;;;;5085849;28;20863;-41
2022/02/01 00:46:22;;;;;;;14.47;4.50;;;4.80;99.90;;;;;;5090850;28;20556;-42
2022/02/01 00:48:47;;;;;;;11.00;3.73;;;4.50;99.90;;;;;;5090444;28;20442;-40
2022/02/01 00:51:13;;;;;;;18.43;4.87;;;4.40;99.90;;;;;;5089986;28;20597;-40
2022/02/01 00:53:43;;;;;;;15.57;3.73;;;4.30;99.90;;;;;;5090839;28;20224;-40
2022/02/01 00:56:09;;;;;;;12.13;3.70;;;4.30;99.90;;;;;;5086295;28;20193;-41
2022/02/01 00:58:36;;;;;;;16.23;4.20;;;4.50;99.90;;;;;;5085503;28;20833;-41
2022/02/01 01:01:02;;;;;;;12.73;3.70;;;4.30;99.90;;;;;;5089248;28;20437;-40
2022/02/01 01:03:27;;;;;;;17.73;4.17;;;4.20;99.90;;;;;;5090372;28;20438;-40
2022/02/01 01:05:53;;;;;;;12.93;3.00;;;4.20;99.90;;;;;;5090271;28;20458;-41
2022/02/01 01:08:20;;;;;;;12.57;3.87;;;4.30;99.90;;;;;;5090206;28;20227;-41
2022/02/01 01:10:45;;;;;;;15.70;4.17;;;4.30;99.90;;;;;;5089580;28;20423;-40
2022/02/01 01:13:34;;;;;;;10.60;3.00;;;4.40;99.90;;;;;;5080993;28;20430;-43
2022/02/01 01:16:37;;;;;;;7.97;3.13;;;4.30;99.90;;;;;;5083461;28;20196;-41
2022/02/01 01:43:46;;;;;;;13.67;3.93;;;4.10;99.90;;;;;;5082858;28;20798;-44
2022/02/01 01:54:16;;;;;;;7.60;3.60;;;4.20;99.90;;;;;;5089198;28;20421;-40
2022/02/01 01:56:43;;;;;;;8.93;3.30;;;4.10;99.90;;;;;;5084663;28;20481;-40
2022/02/01 01:59:10;;;;;;;9.00;3.30;;;4.50;99.90;;;;;;5084693;28;20443;-40
2022/02/01 02:01:37;;;;;;;8.43;2.93;;;4.40;99.90;;;;;;5088191;28;20414;-41
2022/02/01 02:04:03;;;;;;;7.00;2.93;;;4.40;99.90;;;;;;5087830;28;20433;-41
2022/02/01 02:06:32;;;;;;;9.73;3.17;;;4.50;99.90;;;;;;5089021;28;20835;-43
2022/02/01 02:09:04;;;;;;;4.43;2.77;;;4.50;99.90;;;;;;5088893;28;20419;-43
2022/02/01 02:14:25;;;;;;;10.33;4.60;;;4.30;99.90;;;;;;5086261;28;20935;-40
2022/02/01 02:16:58;;;;;;;8.17;3.23;;;4.40;99.90;;;;;;5082712;28;20853;-42
2022/02/01 02:19:27;;;;;;;6.70;2.80;;;4.20;99.90;;;;;;5088986;28;20477;-44
2022/02/01 02:21:57;;;;;;;9.27;2.73;;;4.50;99.90;;;;;;5086887;28;20934;-43
2022/02/01 02:24:26;;;;;;;6.80;2.00;;;4.30;99.90;;;;;;5088450;28;20450;-43
2022/02/01 02:26:52;;;;;;;8.17;2.37;;;4.50;99.90;;;;;;5083130;28;20566;-45
2022/02/01 02:29:19;;;;;;;7.73;2.57;;;4.30;99.90;;;;;;5078413;28;20557;-40
2022/02/01 02:31:46;;;;;;;11.93;3.20;;;4.40;99.90;;;;;;5087931;28;20963;-40
2022/02/01 02:34:14;;;;;;;9.47;2.80;;;4.30;99.90;;;;;;5089011;28;20426;-40
2022/02/01 02:36:48;;;;;;;7.93;1.70;;;4.50;99.90;;;;;;5088723;28;20434;-40
2022/02/01 02:41:53;;;;;;;10.90;3.10;;;4.40;99.90;;;;;;5083591;28;20497;-42
2022/02/01 02:47:06;;;;;;;12.47;4.50;;;4.30;99.90;;;;;;5082956;28;20450;-40
2022/02/01 02:49:33;;;;;;;10.67;2.57;;;4.20;99.90;;;;;;5087767;28;20415;-39
2022/02/01 02:51:59;;;;;;;8.80;2.20;;;4.20;99.90;;;;;;5087450;28;20612;-40
2022/02/01 02:54:26;;;;;;;8.97;2.17;;;4.40;99.90;;;;;;5088631;28;20448;-41
2022/02/01 02:56:54;;;;;;;10.27;2.20;;;4.20;99.90;;;;;;5084423;28;20842;-40
2022/02/01 02:59:25;;;;;;;10.30;2.57;;;4.40;99.90;;;;;;5078680;28;20467;-40
2022/02/01 03:01:51;;;;;;;11.17;3.10;;;4.60;99.90;;;;;;5086814;28;20483;-45
2022/02/01 03:04:22;;;;;;;7.47;2.03;;;4.50;99.90;;;;;;5087909;28;20465;-42
2022/02/01 03:06:48;;;;;;;8.70;2.63;;;4.30;99.90;;;;;;5087942;28;20502;-40
2022/02/01 03:09:15;;;;;;;11.13;2.43;;;4.40;99.90;;;;;;5074006;28;20935;-40
2022/02/01 03:11:42;;;;;;;9.70;2.43;;;4.30;99.90;;;;;;5085962;28;20390;-40
2022/02/01 03:14:40;;;;;;;9.90;3.13;;;4.40;99.90;;;;;;5079902;28;20422;-42
2022/02/01 03:17:19;;;;;;;12.00;3.07;;;4.40;99.90;;;;;;5083543;28;20847;-40
2022/02/01 03:19:56;;;;;;;10.10;2.47;;;4.50;99.90;;;;;;5087423;28;20602;-42
2022/02/01 03:22:24;;;;;;;7.37;2.70;;;4.30;99.90;;;;;;5086222;28;20549;-41
2022/02/01 03:24:51;;;;;;;10.77;2.90;;;4.50;99.90;;;;;;5087305;28;20452;-42
2022/02/01 03:27:17;;;;;;;10.73;3.10;;;4.40;99.90;;;;;;5080519;28;20463;-40
2022/02/01 03:29:43;;;;;;;16.33;3.50;;;4.50;99.90;;;;;;5079567;28;20422;-40
2022/02/01 03:32:09;;;;;;;15.80;3.70;;;4.50;99.90;;;;;;5087676;28;20434;-41
2022/02/01 03:34:35;;;;;;;12.20;3.67;;;4.50;99.90;;;;;;5087600;28;20245;-41
2022/02/01 03:37:02;;;;;;;5.93;3.30;;;4.30;99.90;;;;;;5087422;28;20465;-41
2022/02/01 03:39:27;;;;;;;16.97;3.77;;;4.30;99.90;;;;;;5087153;28;20905;-41
2022/02/01 03:41:53;;;;;;;9.50;3.37;;;4.40;99.90;;;;;;5085047;28;20454;-42
2022/02/01 03:44:20;;;;;;;10.83;3.80;;;4.30;99.90;;;;;;5084362;28;20188;-40
2022/02/01 03:46:58;;;;;;;13.37;3.70;;;4.50;99.90;;;;;;5087077;28;20212;-40
2022/02/01 03:49:24;;;;;;;8.93;3.10;;;4.20;99.90;;;;;;5087491;28;20428;-40
2022/02/01 03:51:49;;;;;;;11.90;2.93;;;4.20;99.90;;;;;;5086572;28;20505;-40
2022/02/01 03:54:15;;;;;;;7.63;2.13;;;4.50;99.90;;;;;;5087299;28;20266;-41
2022/02/01 03:56:40;;;;;;;7.70;2.80;;;4.20;99.90;;;;;;5087304;28;20204;-43
2022/02/01 03:59:06;;;;;;;10.37;3.30;;;4.40;99.90;;;;;;5076988;28;20180;-43
2022/02/01 04:01:32;;;;;;;6.93;2.53;;;4.20;99.90;;;;;;5085347;28;20188;-41
2022/02/01 04:03:57;;;;;;;5.37;3.03;;;4.30;99.90;;;;;;5088928;28;20286;-40
2022/02/01 04:06:23;;;;;;;10.53;2.90;;;4.30;99.90;;;;;;5091367;28;20204;-41
2022/02/01 04:08:49;;;;;;;11.20;3.40;;;4.00;99.90;;;;;;5076584;28;20562;-40
2022/02/01 04:11:14;;;;;;;8.50;3.33;;;4.40;99.90;;;;;;5090777;28;20342;-41
2022/02/01 04:13:41;;;;;;;8.60;2.77;;;4.10;99.90;;;;;;5081581;28;20325;-40
2022/02/01 04:16:07;;;;;;;10.47;2.90;;;4.20;99.90;;;;;;5091594;28;20177;-41
2022/02/01 04:18:33;;;;;;;9.80;2.63;;;4.30;99.90;;;;;;5089884;28;20461;-45
2022/02/01 04:20:58;;;;;;;11.60;3.07;;;4.00;99.90;;;;;;5090661;28;20271;-40
2022/02/01 04:23:24;;;;;;;10.03;2.33;;;3.90;99.90;;;;;;5089210;28;21033;-41
2022/02/01 04:25:50;;;;;;;10.63;1.97;;;4.10;99.90;;;;;;5091304;28;20200;-42
2022/02/01 04:28:16;;;;;;;10.90;3.23;;;4.20;99.90;;;;;;5082199;28;20185;-42
2022/02/01 04:30:42;;;;;;;5.43;1.70;;;3.90;99.90;;;;;;5083849;28;20500;-40
2022/02/01 04:33:08;;;;;;;11.70;2.80;;;4.30;99.90;;;;;;5090700;28;20430;-40
2022/02/01 04:35:34;;;;;;;8.73;2.20;;;4.00;99.90;;;;;;5090932;28;20191;-42
2022/02/01 04:38:00;;;;;;;10.57;2.20;;;4.00;99.90;;;;;;5090460;28;20429;-40
2022/02/01 04:40:28;;;;;;;7.83;2.10;;;3.90;99.90;;;;;;5089083;28;20434;-41
2022/02/01 04:42:54;;;;;;;8.70;2.10;;;4.10;99.90;;;;;;5086092;28;20260;-41
2022/02/01 04:45:23;;;;;;;7.93;2.40;;;4.20;99.90;;;;;;5089637;28;20415;-40
2022/02/01 04:47:51;;;;;;;10.63;3.20;;;3.90;99.90;;;;;;5090595;28;20469;-41
2022/02/01 04:50:23;;;;;;;7.67;1.70;;;4.10;99.90;;;;;;5089663;28;20430;-40
2022/02/01 04:52:52;;;;;;;15.37;2.50;;;4.00;99.90;;;;;;5090584;28;20426;-40
2022/02/01 04:55:19;;;;;;;11.30;2.40;;;3.80;99.90;;;;;;5090638;28;20418;-40
2022/02/01 04:57:54;;;;;;;9.53;4.50;;;3.90;99.90;;;;;;5085390;28;20431;-42
2022/02/01 05:00:28;;;;;;;16.00;3.63;;;3.90;99.90;;;;;;5086349;28;20433;-41
2022/02/01 05:02:55;;;;;;;10.83;3.27;;;3.80;99.90;;;;;;5090093;28;20418;-40
2022/02/01 05:05:28;;;;;;;6.23;2.57;;;3.80;99.90;;;;;;5090213;28;20421;-41
2022/02/01 05:08:07;;;;;;;14.07;3.90;;;3.90;99.90;;;;;;5090084;28;20462;-41
2022/02/01 05:10:33;;;;;;;9.27;2.80;;;4.10;99.90;;;;;;5089385;28;20513;-40
2022/02/01 05:15:45;;;;;;;7.57;3.13;;;4.10;99.90;;;;;;5087488;28;20414;-40
2022/02/01 05:18:16;;;;;;;7.73;2.93;;;4.10;99.90;;;;;;5090280;28;20471;-40
2022/02/01 05:23:11;;;;;;;10.93;3.00;;;4.00;99.90;;;;;;5088394;28;20426;-40
2022/02/01 05:25:36;;;;;;;8.67;2.70;;;4.00;99.90;;;;;;5089625;28;20517;-40
2022/02/01 05:28:02;;;;;;;9.77;2.80;;;4.10;99.90;;;;;;5082698;28;20427;-41
2022/02/01 05:30:29;;;;;;;9.47;2.90;;;3.80;99.90;;;;;;5081426;28;20184;-41
2022/02/01 05:32:55;;;;;;;7.67;2.40;;;3.90;99.90;;;;;;5089883;28;20559;-41
2022/02/01 05:35:21;;;;;;;7.90;3.50;;;3.90;99.90;;;;;;5089720;28;20515;-41
2022/02/01 05:37:47;;;;;;;10.33;3.10;;;3.90;99.90;;;;;;5089367;28;20421;-40
2022/02/01 05:40:14;;;;;;;11.40;3.50;;;4.10;99.90;;;;;;5088811;28;20430;-41
2022/02/01 05:42:47;;;;;;;9.27;3.20;;;4.20;99.90;;;;;;5087818;28;20249;-40
2022/02/01 05:45:13;;;;;;;7.20;2.73;;;4.10;99.90;;;;;;5079348;28;20925;-41
2022/02/01 05:47:39;;;;;;;4.47;2.90;;;4.00;99.90;;;;;;5089133;28;20493;-42
2022/02/01 05:50:06;;;;;;;7.70;2.70;;;3.90;99.90;;;;;;5075882;28;20277;-41
2022/02/01 05:52:32;;;;;;;9.57;3.80;;;4.20;99.90;;;;;;5089359;28;20430;-40
2022/02/01 05:54:58;;;;;;;8.10;3.60;;;4.00;99.90;;;;;;5075560;28;20475;-41
2022/02/01 05:57:26;;;;;;;7.47;2.80;;;4.10;99.90;;;;;;5089058;28;20454;-44
2022/02/01 05:59:52;;;;;;;13.83;3.33;;;4.00;99.90;;;;;;5078052;28;20210;-40
2022/02/01 06:02:18;;;;;;;8.83;2.90;;;3.70;99.90;;;;;;5089136;28;20426;-40
2022/02/01 06:04:44;;;;;;;9.00;3.03;;;3.90;99.90;;;;;;5089183;28;20734;-41
2022/02/01 06:07:10;;;;;;;8.03;2.50;;;4.00;99.90;;;;;;5089120;28;20465;-40
2022/02/01 06:09:36;;;;;;;11.30;3.53;;;3.90;99.90;;;;;;5088833;28;20423;-40
2022/02/01 06:12:01;;;;;;;11.27;3.40;;;3.90;99.90;;;;;;5088795;28;20650;-40
2022/02/01 06:14:27;;;;;;;10.40;2.90;;;4.00;99.90;;;;;;5079584;28;20280;-43
2022/02/01 06:16:53;;;;;;;8.77;2.67;;;3.90;99.90;;;;;;5088984;28;20188;-41
2022/02/01 06:19:18;;;;;;;12.90;2.70;;;3.90;99.90;;;;;;5088771;28;20211;-41
2022/02/01 06:21:44;;;;;;;7.47;2.97;;;3.70;99.90;;;;;;5087239;28;20185;-40
2022/02/01 06:24:10;;;;;;;9.27;2.73;;;3.70;99.90;;;;;;5088276;28;20620;-45
2022/02/01 06:26:36;;;;;;;5.67;2.20;;;3.70;99.90;;;;;;5088033;28;20215;-42
2022/02/01 06:29:02;;;;;;;7.47;3.50;;;3.90;99.90;;;;;;5078431;28;20427;-40
2022/02/01 06:31:28;;;;;;;5.10;3.00;;;4.00;99.90;;;;;;5085823;28;20269;-40
2022/02/01 06:33:54;;;;;;;7.67;3.50;;;3.90;99.90;;;;;;5088720;28;20498;-40
2022/02/01 06:36:19;;;;;;;13.40;4.20;;;4.10;99.90;;;;;;5087120;28;20194;-40
2022/02/01 06:38:45;;;;;;;9.43;3.20;;;4.00;99.90;;;;;;5087944;28;20244;-41
2022/02/01 06:41:11;;;;;;;8.03;2.80;;;3.90;99.90;;;;;;5068590;28;20184;-40
2022/02/01 06:43:37;;;;;;;9.17;4.13;;;4.10;99.90;;;;;;5084293;28;20199;-40
2022/02/01 06:46:02;;;;;;;7.23;3.40;;;4.20;99.90;;;;;;5081339;28;20466;-40
2022/02/01 06:48:28;;;;;;;9.50;3.27;;;3.80;99.90;;;;;;5088273;28;20176;-43
2022/02/01 06:50:54;;;;;;;10.83;3.83;;;4.20;99.90;;;;;;5087324;28;20540;-43
2022/02/01 06:53:20;;;;;;;8.00;3.43;;;4.10;99.90;;;;;;5087924;28;20183;-40
2022/02/01 06:55:59;;;;;;;12.30;3.50;;;4.00;99.90;;;;;;5088180;28;20283;-41
2022/02/01 06:58:25;;;;;;;9.30;3.90;;;4.10;99.90;;;;;;5084799;28;20477;-43
2022/02/01 07:00:50;;;;;;;7.83;4.03;;;3.90;99.90;;;;;;5082016;28;20513;-41
2022/02/01 07:03:16;;;;;;;9.37;3.47;;;4.10;99.90;;;;;;5087712;28;20177;-40
2022/02/01 07:05:42;;;;;;;11.23;4.10;;;4.00;99.90;;;;;;5087956;28;20238;-41
2022/02/01 07:08:07;;;;;;;8.00;3.40;;;4.10;99.90;;;;;;5088037;28;20587;-40
2022/02/01 07:10:34;;;;;;;17.60;4.37;;;3.80;99.90;;;;;;5087542;28;20184;-40
2022/02/01 07:12:59;;;;;;;13.67;4.50;;;3.80;99.90;;;;;;5087859;28;20184;-40
2022/02/01 07:15:25;;;;;;;12.13;4.73;;;3.90;99.90;;;;;;5078596;28;20430;-46
2022/02/01 07:17:53;;;;;;;9.10;3.20;;;4.10;99.90;;;;;;5087253;28;20666;-42
2022/02/01 07:20:20;;;;;;;7.50;3.43;;;4.10;99.90;;;;;;5086888;28;20269;-42
2022/02/01 07:22:48;;;;;;;13.90;4.50;;;4.20;99.90;;;;;;5086518;28;20422;-40
2022/02/01 07:25:30;;;;;;;9.80;3.40;;;4.10;99.90;;;;;;5087449;28;20426;-40
2022/02/01 07:27:59;;;;;;;12.73;4.20;;;4.00;99.90;;;;;;5079266;28;20546;-40
2022/02/01 07:30:27;;;;;;;7.07;3.07;;;4.10;99.90;;;;;;5075904;28;20949;-40
2022/02/01 07:32:53;;;;;;;7.87;2.97;;;4.20;99.90;;;;;;5086711;28;20448;-40
2022/02/01 07:35:21;;;;;;;7.93;3.40;;;4.20;99.90;;;;;;5087202;28;20422;-40
2022/02/01 07:37:47;;;;;;;8.57;2.90;;;4.10;99.90;;;;;;5084613;28;20429;-40
2022/02/01 07:40:13;;;;;;;13.40;3.70;;;4.50;99.90;;;;;;5086397;28;20501;-40
2022/02/01 07:42:39;;;;;;;8.80;4.50;;;4.30;99.90;;;;;;5086893;28;20422;-42
2022/02/01 07:45:07;;;;;;;6.77;3.60;;;4.50;99.90;;;;;;5082496;28;20181;-43
2022/02/01 07:47:33;;;;;;;11.30;4.07;;;4.40;99.90;;;;;;5086706;28;20204;-41
2022/02/01 07:49:59;;;;;;;9.20;3.80;;;4.40;99.90;;;;;;5086633;28;20422;-40
2022/02/01 07:52:24;;;;;;;10.07;3.70;;;4.30;99.90;;;;;;5087067;28;20192;-40
2022/02/01 07:54:50;;;;;;;10.03;3.23;;;4.40;99.90;;;;;;5084327;28;20203;-43
2022/02/01 07:57:16;;;;;;;11.23;3.53;;;4.30;99.90;;;;;;5087128;28;20283;-40
2022/02/01 07:59:42;;;;;;;12.37;4.03;;;4.50;99.90;;;;;;5080123;28;20185;-41
2022/02/01 08:02:18;;;;;;;6.90;4.73;;;4.50;99.90;;;;;;5086418;28;20172;-41
2022/02/01 08:04:48;;;;;;;7.23;3.40;;;4.40;99.90;;;;;;5085140;28;20416;-41
2022/02/01 08:07:15;;;;;;;11.53;4.67;;;4.50;99.90;;;;;;5086308;28;20511;-42
2022/02/01 08:09:45;;;;;;;7.43;3.60;;;4.40;99.90;;;;;;5086605;28;20989;-40
2022/02/01 08:12:21;;;;;;;10.93;4.30;;;4.40;99.90;;;;;;5087051;28;20429;-40
2022/02/01 08:20:07;;;;;;;9.83;4.90;;;4.40;99.90;;;;;;5085440;28;20768;-44
2022/02/01 08:25:11;;;;;;;11.00;4.13;;;4.60;99.90;;;;;;5083008;28;20711;-40
2022/02/01 08:27:39;;;;;;;8.30;4.80;;;4.60;99.90;;;;;;5086868;28;20490;-42
2022/02/01 08:30:06;;;;;;;13.67;7.07;;;4.60;99.90;;;;;;5078858;28;20473;-40
2022/02/01 08:32:32;;;;;;;11.50;5.37;;;4.30;99.90;;;;;;5085413;28;20450;-41
2022/02/01 08:34:58;;;;;;;7.23;4.70;;;4.70;99.90;;;;;;5087192;28;20920;-40
2022/02/01 08:37:23;;;;;;;12.73;6.47;;;4.50;99.90;;;;;;5086555;28;20271;-40
2022/02/01 08:39:49;;;;;;;14.70;6.13;;;4.40;99.90;;;;;;5086521;28;20224;-40
2022/02/01 08:42:17;;;;;;;14.00;7.30;;;4.60;99.90;;;;;;5086732;28;20181;-42
2022/02/01 08:44:44;;;;;;;9.60;6.40;;;4.60;99.90;;;;;;5080964;28;20497;-42
2022/02/01 08:47:13;;;;;;;12.47;5.60;;;4.60;99.90;;;;;;5082331;28;20499;-41
2022/02/01 08:49:39;;;;;;;10.90;7.13;;;4.40;99.90;;;;;;5087247;28;20472;-40
2022/02/01 08:52:10;;;;;;;9.47;7.00;;;4.20;99.90;;;;;;5090155;28;20495;-42
2022/02/01 08:54:38;;;;;;;15.60;7.17;;;4.50;99.90;;;;;;5088902;28;20415;-40
2022/02/01 08:57:21;;;;;;;15.47;7.63;;;4.50;99.90;;;;;;5089962;28;20434;-41
2022/02/01 08:59:48;;;;;;;11.30;6.60;;;4.50;99.90;;;;;;5084736;28;20434;-40
2022/02/01 09:02:17;;;;;;;9.33;6.13;;;4.60;99.90;;;;;;5087063;28;20420;-41
2022/02/01 09:04:42;;;;;;;10.97;6.37;;;4.60;99.90;;;;;;5087854;28;20414;-40
2022/02/01 09:07:08;;;;;;;8.07;5.50;;;4.40;99.90;;;;;;5090385;28;20857;-41
2022/02/01 09:09:36;;;;;;;8.03;6.30;;;4.60;99.90;;;;;;5090864;28;20399;-40
2022/02/01 09:12:02;;;;;;;7.63;5.87;;;4.80;99.90;;;;;;5089888;28;20463;-41
2022/02/01 09:14:29;;;;;;;12.00;6.63;;;4.80;99.90;;;;;;5085628;28;20819;-40
2022/02/01 09:16:55;;;;;;;8.27;5.20;;;4.60;99.90;;;;;;5083880;28;20415;-40
2022/02/01 09:19:20;;;;;;;8.70;4.83;;;4.70;99.90;;;;;;5089930;28;20429;-40
2022/02/01 09:21:46;;;;;;;6.83;5.07;;;4.70;99.90;;;;;;5088710;28;21133;-40
2022/02/01 09:24:12;;;;;;;10.80;5.87;;;4.60;99.90;;;;;;5090053;28;20531;-41
2022/02/01 09:26:38;;;;;;;6.43;4.60;;;4.80;99.90;;;;;;5089598;28;20461;-42
2022/02/01 09:29:07;;;;;;;7.87;4.47;;;4.90;99.90;;;;;;5088283;28;20185;-41
2022/02/01 09:31:33;;;;;;;6.93;4.53;;;4.70;99.90;;;;;;5081919;28;20422;-40
2022/02/01 09:33:59;;;;;;;5.53;4.40;;;4.70;99.90;;;;;;5089852;28;20456;-40
2022/02/01 09:36:24;;;;;;;11.63;5.57;;;4.80;99.90;;;;;;5089416;28;20453;-40
2022/02/01 09:38:52;;;;;;;6.10;4.90;;;4.90;99.90;;;;;;5090009;28;20423;-40
2022/02/01 09:41:18;;;;;;;8.57;5.00;;;4.80;99.90;;;;;;5089094;28;20212;-41
2022/02/01 09:43:44;;;;;;;7.83;6.20;;;4.70;99.90;;;;;;5089872;28;20414;-42
2022/02/01 09:46:10;;;;;;;8.10;6.00;;;4.70;99.90;;;;;;5080139;28;20466;-40
2022/02/01 09:48:36;;;;;;;8.07;6.00;;;4.60;99.90;;;;;;5089678;28;20430;-41
2022/02/01 09:51:07;;;;;;;10.80;6.30;;;4.60;99.90;;;;;;5088893;28;20854;-40
2022/02/01 09:53:37;;;;;;;9.17;6.40;;;4.80;99.90;;;;;;5089625;28;20446;-40
2022/02/01 09:56:03;;;;;;;8.23;6.40;;;4.70;99.90;;;;;;5089107;28;20438;-41
2022/02/01 09:58:30;;;;;;;9.07;6.90;;;4.80;99.90;;;;;;5089501;28;20459;-41
2022/02/01 10:00:56;;;;;;;8.50;6.43;;;4.70;99.90;;;;;;5078730;28;20432;-42
2022/02/01 10:03:23;;;;;;;8.30;6.30;;;4.80;99.90;;;;;;5088963;28;20801;-42
2022/02/01 10:06:10;;;;;;;10.97;7.43;;;4.80;99.90;;;;;;5089237;28;20928;-41
2022/02/01 10:08:38;;;;;;;8.67;6.97;;;4.70;99.90;;;;;;5088973;28;20414;-40
2022/02/01 10:11:08;;;;;;;10.00;6.93;;;4.70;99.90;;;;;;5088443;28;20468;-42
2022/02/01 10:13:38;;;;;;;9.73;6.80;;;4.80;99.90;;;;;;5088929;28;20414;-41
2022/02/01 10:16:12;;;;;;;8.90;6.57;;;5.00;99.90;;;;;;5074784;28;20849;-46
2022/02/01 10:18:38;;;;;;;9.00;7.03;;;4.80;99.90;;;;;;5086801;28;20414;-41
2022/02/01 10:21:14;;;;;;;9.90;7.90;;;5.00;99.90;;;;;;5088432;28;20426;-40
2022/02/01 10:23:45;;;;;;;7.43;6.73;;;5.00;99.90;;;;;;5088225;28;20173;-40
2022/02/01 10:26:12;;;;;;;11.53;7.40;;;5.00;99.90;;;;;;5088826;28;20459;-41
2022/02/01 10:31:20;;;;;;;9.67;6.87;;;4.90;99.90;;;;;;5072662;28;20482;-40
2022/02/01 10:34:00;;;;;;;9.57;7.90;;;4.90;99.90;;;;;;5087512;28;20843;-41
2022/02/01 10:36:40;;;;;;;10.33;7.50;;;5.10;99.90;;;;;;5088869;28;20448;-40
2022/02/01 10:39:18;;;;;;;10.93;8.10;;;5.20;99.90;;;;;;5088837;28;20820;-42
2022/02/01 10:42:12;;;;;;;11.17;8.27;;;4.90;99.90;;;;;;5087762;28;20425;-41
2022/02/01 10:44:42;;;;;;;13.97;9.17;;;5.00;99.90;;;;;;5077431;28;20433;-41
2022/02/01 10:47:11;;;;;;;15.60;9.10;;;5.00;99.90;;;;;;5078691;28;20450;-40
2022/02/01 10:49:37;;;;;;;11.77;9.00;;;4.90;99.90;;;;;;5087670;28;20454;-43
2022/02/01 10:52:05;;;;;;;12.53;8.60;;;5.20;99.90;;;;;;5088424;28;20548;-40
2022/02/01 10:54:33;;;;;;;11.40;8.23;;;5.10;99.90;;;;;;5088652;28;20418;-40
2022/02/01 10:57:00;;;;;;;11.73;9.10;;;5.00;99.90;;;;;;5087013;28;20438;-43
2022/02/01 10:59:26;;;;;;;10.07;8.87;;;5.00;99.90;;;;;;5087723;28;21453;-41
2022/02/01 11:01:54;;;;;;;11.60;9.97;;;5.10;99.90;;;;;;5084164;28;20419;-42
2022/02/01 11:04:21;;;;;;;14.83;9.27;;;5.10;99.90;;;;;;5087588;28;20490;-40
2022/02/01 11:06:53;;;;;;;10.80;8.37;;;5.10;99.90;;;;;;5087386;28;20547;-44
2022/02/01 11:09:24;;;;;;;12.40;8.10;;;5.30;99.90;;;;;;5087637;28;20421;-43
2022/02/01 11:11:56;;;;;;;11.60;8.67;;;5.40;99.90;;;;;;5086518;28;20429;-43
2022/02/01 11:14:23;;;;;;;10.00;8.73;;;5.10;99.90;;;;;;5087537;28;20411;-43
2022/02/01 11:17:03;;;;;;;10.70;8.00;;;5.10;99.90;;;;;;5076806;28;20461;-41
2022/02/01 11:19:29;;;;;;;9.53;8.23;;;5.30;99.90;;;;;;5085469;28;20490;-41
2022/02/01 11:21:56;;;;;;;8.60;7.70;;;5.20;99.90;;;;;;5085457;28;21012;-43
2022/02/01 11:24:31;;;;;;;10.03;7.90;;;5.20;99.90;;;;;;5087595;28;20509;-41
2022/02/01 11:27:14;;;;;;;7.83;6.63;;;5.30;99.90;;;;;;5085771;28;20482;-41
2022/02/01 11:32:18;;;;;;;8.70;7.13;;;5.40;99.90;;;;;;5083303;28;20458;-43
2022/02/01 11:34:44;;;;;;;9.70;6.40;;;5.20;99.90;;;;;;5081183;28;20540;-40
2022/02/01 11:37:15;;;;;;;8.30;6.97;;;5.50;99.90;;;;;;5088086;28;20422;-40
2022/02/01 11:39:53;;;;;;;7.43;6.50;;;5.60;99.90;;;;;;5087207;28;20927;-40
2022/02/01 11:42:21;;;;;;;5.70;5.00;;;5.30;99.90;;;;;;5087536;28;20418;-40
2022/02/01 11:44:59;;;;;;;6.17;5.10;;;5.50;99.90;;;;;;5087345;28;20938;-44
2022/02/01 11:47:35;;;;;;;6.10;5.13;;;5.40;99.90;;;;;;5079358;28;20465;-40
2022/02/01 11:50:14;;;;;;;6.63;5.17;;;5.50;99.90;;;;;;5085162;28;20505;-44
2022/02/01 11:52:55;;;;;;;4.90;4.40;;;5.60;99.90;;;;;;5087770;28;20889;-41
2022/02/01 11:55:24;;;;;;;7.03;4.77;;;5.40;99.90;;;;;;5087391;28;20901;-42
2022/02/01 11:57:54;;;;;;;5.97;5.20;;;5.70;99.90;;;;;;5087724;28;20414;-41
2022/02/01 12:00:23;;;;;;;8.47;4.50;;;5.80;99.90;;;;;;5082946;28;20426;-41
2022/02/01 12:02:52;;;;;;;4.23;3.60;;;5.70;99.90;;;;;;5082855;28;20439;-41
2022/02/01 12:05:28;;;;;;;4.40;3.80;;;5.90;99.90;;;;;;5086739;28;20421;-41
2022/02/01 12:08:06;;;;;;;3.80;3.27;;;5.80;99.90;;;;;;5086005;28;20515;-41
2022/02/01 12:10:38;;;;;;;4.33;3.90;;;6.00;99.90;;;;;;5086091;28;20771;-40
2022/02/01 12:13:03;;;;;;;4.37;3.97;;;5.80;99.90;;;;;;5087290;28;20411;-40
2022/02/01 12:15:31;;;;;;;4.13;3.50;;;5.90;99.90;;;;;;5084648;28;20462;-41
2022/02/01 12:18:27;;;;;;;4.10;3.73;;;5.90;99.90;;;;;;5080198;28;20192;-41
2022/02/01 12:21:20;;;;;;;3.40;3.10;;;5.90;99.90;;;;;;5082138;28;20406;-41
2022/02/01 12:23:48;;;;;;;3.40;2.73;;;6.10;99.90;;;;;;5086649;28;20584;-43
2022/02/01 12:26:22;;;;;;;3.67;3.23;;;6.00;99.90;;;;;;5090339;28;20857;-43
2022/02/01 12:28:52;;;;;;;3.90;3.30;;;6.10;99.90;;;;;;5090878;28;20407;-43
2022/02/01 12:31:18;;;;;;;4.20;3.13;;;5.90;99.90;;;;;;5084272;28;20932;-41
2022/02/01 12:33:47;;;;;;;3.07;2.87;;;6.10;99.90;;;;;;5090748;28;20769;-42
2022/02/01 12:36:15;;;;;;;3.03;2.73;;;6.20;99.90;;;;;;5090857;28;20433;-41
2022/02/01 12:38:43;;;;;;;3.43;3.00;;;6.20;99.90;;;;;;5091093;28;20696;-41
2022/02/01 12:41:14;;;;;;;3.70;3.37;;;6.20;99.90;;;;;;5089977;28;20414;-40
2022/02/01 12:46:48;;;;;;;3.10;2.80;;;6.30;99.90;;;;;;5060673;28;20462;-40
2022/02/01 12:49:17;;;;;;;4.43;3.00;;;6.50;99.90;;;;;;5086763;28;20402;-41
2022/02/01 12:51:44;;;;;;;3.37;3.07;;;6.30;99.90;;;;;;5089774;28;20414;-42
2022/02/01 12:54:39;;;;;;;4.83;3.73;;;6.20;99.90;;;;;;5089500;28;20422;-41
2022/02/01 12:57:17;;;;;;;4.40;3.20;;;6.40;99.90;;;;;;5073067;28;20457;-41
2022/02/01 12:59:56;;;;;;;3.77;3.47;;;6.20;99.90;;;;;;5089943;28;20803;-41
2022/02/01 13:02:26;;;;;;;3.33;3.03;;;6.20;99.90;;;;;;5082127;28;20430;-41
2022/02/01 13:04:54;;;;;;;3.33;3.03;;;6.40;99.90;;;;;;5090246;28;20424;-40
2022/02/01 13:21:24;;;;;;;5.03;4.43;;;6.30;99.90;;;;;;5089136;28;20791;-42
2022/02/01 13:23:59;;;;;;;4.70;4.20;;;6.40;99.90;;;;;;5045779;28;20201;-41
2022/02/01 13:26:28;;;;;;;4.40;4.00;;;6.30;99.90;;;;;;5090212;28;20543;-41
2022/02/01 13:29:10;;;;;;;3.93;3.60;;;6.40;99.90;;;;;;5089677;28;20475;-40
2022/02/01 13:31:43;;;;;;;3.93;3.53;;;6.50;99.90;;;;;;5082364;28;20488;-40
2022/02/01 13:34:11;;;;;;;4.27;3.87;;;6.60;99.90;;;;;;5086921;28;20402;-42
2022/02/01 13:36:53;;;;;;;3.90;3.50;;;6.70;99.90;;;;;;5088676;28;20418;-43
2022/02/01 13:39:28;;;;;;;4.23;3.87;;;6.50;99.90;;;;;;5087975;28;20509;-40
2022/02/01 13:42:08;;;;;;;5.10;3.73;;;6.50;99.90;;;;;;5085021;28;20426;-41
2022/02/01 13:44:35;;;;;;;3.97;3.60;;;6.50;99.90;;;;;;5087205;28;20455;-40
2022/02/01 13:47:07;;;;;;;4.37;3.97;;;6.50;99.90;;;;;;5082332;28;20454;-41
2022/02/01 13:49:33;;;;;;;5.83;3.93;;;6.70;99.90;;;;;;5087460;28;20476;-39
2022/02/01 13:51:59;;;;;;;4.30;3.70;;;6.80;99.90;;;;;;5088673;28;20502;-41
2022/02/01 13:54:43;;;;;;;4.30;3.80;;;6.90;99.90;;;;;;5089350;28;20506;-40
2022/02/01 13:57:18;;;;;;;4.70;4.27;;;7.10;99.90;;;;;;5088987;28;20796;-40
2022/02/01 13:59:44;;;;;;;4.80;4.33;;;6.60;99.90;;;;;;5087830;28;20418;-40
2022/02/01 14:02:19;;;;;;;4.93;4.43;;;6.60;99.90;;;;;;5082775;28;20432;-41
2022/02/01 14:05:20;;;;;;;5.63;5.03;;;6.70;99.90;;;;;;5081456;28;20954;-40
2022/02/01 14:13:36;;;;;;;6.90;6.20;;;7.20;99.90;;;;;;5088808;28;21073;-41
2022/02/01 14:22:26;;;;;;;5.77;5.07;;;6.90;99.90;;;;;;5088703;28;20528;-40
2022/02/01 14:22:45;;;;;;;7.30;6.33;;;7.00;99.90;;;;;;5086973;28;20892;-40
2022/02/01 14:32:45;;;;;;;8.50;7.60;;;7.10;99.90;;;;;;5080027;28;20484;-42
2022/02/01 14:35:01;;;;;;;9.80;7.93;;;7.00;99.90;;;;;;5084777;28;20438;-41
2022/02/01 14:37:58;;;;;;;8.13;7.33;;;7.20;99.90;;;;;;5088490;28;20573;-42
2022/02/01 14:46:06;;;;;;;13.93;10.63;;;7.20;99.90;;;;;;5063565;28;21118;-41
2022/02/01 14:48:36;;;;;;;13.70;11.20;;;7.20;99.90;;;;;;5078615;28;20434;-40
2022/02/01 14:51:06;;;;;;;16.10;11.97;;;7.30;99.90;;;;;;5087647;28;20550;-40
2022/02/01 14:53:33;;;;;;;17.40;13.13;;;7.40;99.90;;;;;;5088398;28;20414;-40
2022/02/01 14:56:09;;;;;;;16.87;13.30;;;7.40;99.90;;;;;;5088011;28;20474;-40
2022/02/01 15:06:59;;;;;;;19.17;15.33;;;7.50;99.90;;;;;;5087360;28;20518;-40
2022/02/01 15:14:51;;;;;;;20.60;15.90;;;7.40;99.90;;;;;;5087800;28;20491;-41
2022/02/01 15:17:17;;;;;;;20.90;16.00;;;7.70;99.90;;;;;;5078406;28;20439;-41
2022/02/01 15:19:44;;;;;;;18.90;15.90;;;7.70;99.90;;;;;;5078447;28;20195;-40
2022/02/01 15:22:10;;;;;;;19.27;15.70;;;7.60;99.90;;;;;;5086144;28;20989;-40